Forside
METAR-TAF:

METAR-TAF

Lufthavne :

Cairo International Airport

Kairo, Egypten

Breddekreds: 30-08N, længdekreds: 031-24E, højde: 64 m

Aktuelle vejr

Denne rapport blev lavet for 24 minutter siden, kl. 13:00 UTC
Vind 6 kt fra nordvest
Temperatur 18°C
Fugtighed 56%
Tryk 1017 hPa
Sigt: 8000 m

METAR: HECA 221300Z 32006KT 8000 NSC 18/09 Q1017 NOSIG

Tid: 15:24 (13:24 UTC)

Vejrudsigter

Denne rapport blev lavet for 2 timer og 24 minutter siden, kl. 11:00 UTC
Foreløbig gælder fra 22 på 12 UTC til 23 på 18 UTC
Vind 8 kt fra nordnordvest
Sigt: 6000 m
Midlertidig
fra 22 på 12 UTC til 22 på 15 UTC
Vind 3 kt fra varierende retninger
Sigt: 3000 m
tåge/dis

TAF: HECA 221100Z 2212/2318 34008KT 6000 NSC TEMPO 2212/2215 VRB03KT 3000 HZ

Vejrobservationer og prognoser fra mere end 4000 lufthavne (METAR og TAF).

De gule og røde prikker repræsenterer de meteorologiske stationer.

Flyt musen over at se navnet på stationen.

Så klik over at se vejr observationer og prognoser.

At skifte det kort: Klik på de grønne knapper med et sort kors for at zoome ind; på den grønne knap med en bindestreg for at zoome ud; eller på de grønne pile for tilstødende kort.


METAR-TAF: